createdAt,value
2022-10-17T00:01:06.693Z,8.87
2022-10-17T00:03:34.951Z,7.97
2022-10-17T00:06:07.829Z,7.83
2022-10-17T00:08:36.305Z,7.10
2022-10-17T00:11:06.144Z,8.73
2022-10-17T00:13:35.153Z,7.87
2022-10-17T00:16:02.848Z,7.87
2022-10-17T00:18:31.955Z,8.07
2022-10-17T00:20:59.729Z,7.40
2022-10-17T00:23:30.352Z,7.43
2022-10-17T00:26:02.125Z,7.50
2022-10-17T00:28:30.013Z,8.60
2022-10-17T00:30:58.662Z,7.93
2022-10-17T00:33:26.498Z,7.60
2022-10-17T00:36:05.552Z,6.73
2022-10-17T00:38:35.865Z,6.67
2022-10-17T00:41:03.904Z,7.67
2022-10-17T00:43:50.691Z,8.43
2022-10-17T00:46:18.406Z,7.53
2022-10-17T00:48:47.528Z,7.20
2022-10-17T00:51:17.752Z,7.30
2022-10-17T00:53:45.611Z,6.90
2022-10-17T00:56:14.399Z,6.70
2022-10-17T00:58:42.200Z,5.83
2022-10-17T01:01:10.096Z,6.33
2022-10-17T01:03:37.918Z,6.37
2022-10-17T01:06:05.848Z,6.33
2022-10-17T01:08:35.164Z,7.27
2022-10-17T01:11:14.630Z,6.63
2022-10-17T01:13:46.172Z,6.43
2022-10-17T01:16:19.735Z,6.93
2022-10-17T01:19:03.450Z,5.47
2022-10-17T01:21:45.835Z,5.80
2022-10-17T01:24:45.755Z,5.50
2022-10-17T01:27:53.658Z,4.93
2022-10-17T01:30:57.438Z,4.93
2022-10-17T01:33:34.620Z,5.43
2022-10-17T01:36:10.088Z,4.93
2022-10-17T01:38:45.434Z,5.40
2022-10-17T01:41:23.467Z,5.53
2022-10-17T01:43:57.083Z,4.63
2022-10-17T01:46:29.533Z,5.17
2022-10-17T01:49:01.202Z,5.17
2022-10-17T01:51:33.750Z,5.70
2022-10-17T01:54:05.434Z,5.23
2022-10-17T01:56:35.158Z,5.10
2022-10-17T01:59:08.913Z,5.07
2022-10-17T02:01:39.280Z,5.23
2022-10-17T02:04:10.201Z,5.23
2022-10-17T02:06:38.751Z,5.03
2022-10-17T02:09:18.579Z,5.57
2022-10-17T02:12:07.591Z,4.80
2022-10-17T02:14:48.475Z,5.33
2022-10-17T02:17:27.835Z,5.57
2022-10-17T02:20:06.502Z,6.20
2022-10-17T02:22:41.089Z,4.90
2022-10-17T02:25:15.572Z,5.50
2022-10-17T02:27:50.585Z,5.23
2022-10-17T02:30:26.459Z,4.93
2022-10-17T02:32:59.984Z,6.40
2022-10-17T02:35:31.594Z,5.60
2022-10-17T02:38:01.405Z,5.40
2022-10-17T02:40:32.082Z,5.60
2022-10-17T02:43:00.985Z,5.33
2022-10-17T02:45:35.775Z,6.07
2022-10-17T02:48:07.567Z,5.43
2022-10-17T02:50:49.316Z,5.60
2022-10-17T02:53:26.692Z,5.57
2022-10-17T02:55:59.638Z,5.60
2022-10-17T02:58:32.841Z,5.63
2022-10-17T03:01:01.960Z,6.03
2022-10-17T03:03:33.471Z,5.13
2022-10-17T03:06:01.385Z,5.60
2022-10-17T03:08:29.093Z,6.17
2022-10-17T03:10:57.127Z,5.37
2022-10-17T03:13:24.840Z,5.47
2022-10-17T03:15:52.551Z,5.37
2022-10-17T03:18:20.237Z,5.80
2022-10-17T03:20:49.318Z,5.77
2022-10-17T03:23:17.134Z,5.57
2022-10-17T03:25:44.871Z,5.97
2022-10-17T03:28:13.213Z,5.87
2022-10-17T03:30:40.913Z,6.17
2022-10-17T03:33:08.504Z,6.00
2022-10-17T03:35:40.427Z,6.43
2022-10-17T03:38:09.608Z,5.43
2022-10-17T03:40:37.325Z,5.90
2022-10-17T03:43:05.043Z,6.87
2022-10-17T03:45:32.856Z,5.70
2022-10-17T03:48:00.754Z,5.67
2022-10-17T03:50:28.696Z,5.63
2022-10-17T03:52:56.428Z,6.07
2022-10-17T03:55:25.508Z,6.17
2022-10-17T03:57:53.123Z,6.13
2022-10-17T04:00:21.033Z,6.50
2022-10-17T04:02:48.720Z,5.90
2022-10-17T04:05:16.524Z,6.60
2022-10-17T04:07:44.151Z,7.90
2022-10-17T04:10:13.145Z,6.20
2022-10-17T04:12:42.436Z,6.27
2022-10-17T04:15:11.123Z,7.17
2022-10-17T04:17:38.827Z,6.40
2022-10-17T04:20:07.658Z,7.47
2022-10-17T04:22:35.319Z,6.57
2022-10-17T04:25:03.345Z,6.33
2022-10-17T04:27:31.008Z,7.37
2022-10-17T04:30:00.059Z,7.10
2022-10-17T04:32:28.001Z,12.00
2022-10-17T04:34:55.765Z,9.83
2022-10-17T04:37:23.567Z,6.40
2022-10-17T04:39:51.376Z,7.03
2022-10-17T04:42:20.875Z,6.33
2022-10-17T04:44:49.217Z,6.07
2022-10-17T04:47:18.780Z,6.50
2022-10-17T04:49:47.250Z,6.67
2022-10-17T04:52:15.387Z,6.47
2022-10-17T04:54:43.162Z,10.00
2022-10-17T04:57:20.098Z,7.83
2022-10-17T04:59:48.022Z,7.03
2022-10-17T05:02:18.085Z,7.07
2022-10-17T05:04:50.364Z,7.80
2022-10-17T05:07:22.312Z,8.20
2022-10-17T05:09:56.147Z,7.67
2022-10-17T05:12:23.999Z,7.33
2022-10-17T05:14:51.905Z,7.77
2022-10-17T05:17:31.929Z,8.00
2022-10-17T05:20:01.913Z,7.00
2022-10-17T05:22:29.823Z,7.27
2022-10-17T05:24:57.762Z,7.13
2022-10-17T05:27:28.245Z,7.43
2022-10-17T05:29:56.091Z,7.73
2022-10-17T05:32:23.911Z,7.83
2022-10-17T05:34:51.726Z,8.60
2022-10-17T05:37:20.957Z,8.53
2022-10-17T05:39:51.371Z,7.73
2022-10-17T05:42:22.675Z,8.00
2022-10-17T05:44:51.170Z,7.27
2022-10-17T05:47:20.787Z,7.07
2022-10-17T05:49:52.581Z,7.43
2022-10-17T05:52:21.959Z,7.97
2022-10-17T05:54:49.828Z,8.13
2022-10-17T05:57:17.798Z,8.53
2022-10-17T05:59:45.565Z,8.37
2022-10-17T06:02:13.974Z,8.27
2022-10-17T06:04:49.022Z,8.23
2022-10-17T06:07:19.559Z,8.17
2022-10-17T06:10:11.975Z,7.30
2022-10-17T06:15:18.735Z,7.70
2022-10-17T06:17:47.748Z,7.97
2022-10-17T06:20:16.750Z,7.33
2022-10-17T06:22:58.586Z,8.03
2022-10-17T06:25:34.222Z,8.23
2022-10-17T06:28:11.776Z,8.37
2022-10-17T06:30:40.432Z,8.10
2022-10-17T06:33:08.967Z,7.80
2022-10-17T06:35:37.028Z,7.33
2022-10-17T06:38:11.999Z,7.73
2022-10-17T06:40:59.543Z,7.10
2022-10-17T06:43:40.062Z,8.33
2022-10-17T06:46:13.880Z,7.57
2022-10-17T06:48:45.440Z,7.17
2022-10-17T06:51:14.362Z,7.77
2022-10-17T06:53:46.039Z,7.77
2022-10-17T06:56:19.807Z,7.10
2022-10-17T06:58:49.639Z,7.10
2022-10-17T07:01:18.532Z,6.47
2022-10-17T07:03:49.695Z,6.60
2022-10-17T07:06:18.126Z,6.00
2022-10-17T07:08:47.206Z,6.57
2022-10-17T07:11:29.794Z,6.40
2022-10-17T07:14:04.814Z,7.53
2022-10-17T07:16:42.372Z,6.90
2022-10-17T07:19:34.486Z,5.90
2022-10-17T07:22:03.410Z,5.73
2022-10-17T07:24:31.829Z,6.13
2022-10-17T07:27:01.487Z,6.87
2022-10-17T07:29:29.748Z,6.27
2022-10-17T07:32:00.107Z,6.20
2022-10-17T07:34:31.553Z,7.20
2022-10-17T07:36:59.915Z,6.20
2022-10-17T07:43:00.107Z,7.70
2022-10-17T07:46:02.080Z,5.93
2022-10-17T07:48:30.067Z,5.63
2022-10-17T07:50:58.111Z,7.53
2022-10-17T07:53:26.334Z,6.70
2022-10-17T07:55:54.389Z,6.20
2022-10-17T07:58:24.623Z,5.73
2022-10-17T08:00:52.674Z,5.33
2022-10-17T08:03:20.832Z,6.37
2022-10-17T08:05:54.469Z,6.17
2022-10-17T08:08:22.606Z,6.00
2022-10-17T08:10:50.652Z,7.50
2022-10-17T08:13:21.880Z,5.97
2022-10-17T08:15:51.415Z,5.07
2022-10-17T08:18:19.431Z,5.40
2022-10-17T08:20:48.711Z,5.50
2022-10-17T08:23:18.289Z,5.23
2022-10-17T08:25:46.265Z,5.03
2022-10-17T08:28:14.051Z,5.60
2022-10-17T08:30:42.079Z,6.83
2022-10-17T08:33:11.664Z,6.37
2022-10-17T08:35:39.797Z,4.73
2022-10-17T08:38:11.004Z,6.63
2022-10-17T08:40:56.940Z,5.27
2022-10-17T08:43:44.092Z,4.73
2022-10-17T08:46:12.819Z,4.73
2022-10-17T08:48:46.730Z,4.53
2022-10-17T08:51:22.972Z,5.20
2022-10-17T08:53:54.993Z,4.73
2022-10-17T08:56:44.086Z,5.13
2022-10-17T08:59:15.277Z,3.90
2022-10-17T09:01:48.991Z,5.40
2022-10-17T09:04:36.284Z,4.53
2022-10-17T09:07:10.506Z,6.40
2022-10-17T09:09:49.032Z,3.80
2022-10-17T09:12:21.891Z,4.30
2022-10-17T09:15:05.628Z,3.83
2022-10-17T09:17:42.192Z,3.73
2022-10-17T09:20:17.139Z,4.33
2022-10-17T09:22:53.446Z,4.70
2022-10-17T09:25:28.851Z,4.43
2022-10-17T09:28:05.992Z,4.37
2022-10-17T09:30:45.059Z,6.70
2022-10-17T09:33:28.392Z,3.97
2022-10-17T09:36:07.704Z,3.87
2022-10-17T09:38:41.572Z,4.50
2022-10-17T09:41:43.809Z,3.60
2022-10-17T09:44:20.035Z,4.27
2022-10-17T09:47:01.848Z,3.73
2022-10-17T09:49:33.908Z,4.83
2022-10-17T09:52:11.324Z,6.03
2022-10-17T09:54:46.529Z,5.43
2022-10-17T09:57:15.925Z,3.60
2022-10-17T09:59:47.076Z,5.80
2022-10-17T10:02:22.142Z,4.87
2022-10-17T10:05:06.722Z,5.80
2022-10-17T10:07:39.786Z,6.80
2022-10-17T10:10:32.065Z,5.07
2022-10-17T10:13:06.338Z,5.93
2022-10-17T10:15:41.085Z,5.13
2022-10-17T10:18:32.252Z,3.63
2022-10-17T10:21:12.868Z,5.43
2022-10-17T10:23:43.382Z,4.97
2022-10-17T10:26:24.379Z,3.30
2022-10-17T10:28:59.160Z,6.87
2022-10-17T10:31:30.602Z,6.77
2022-10-17T10:34:00.960Z,5.23
2022-10-17T10:36:44.652Z,4.03
2022-10-17T10:39:27.161Z,5.27
2022-10-17T10:41:55.396Z,4.23
2022-10-17T10:44:26.848Z,5.00
2022-10-17T10:47:15.535Z,3.60
2022-10-17T10:49:44.367Z,3.97
2022-10-17T10:52:20.803Z,4.00
2022-10-17T10:54:58.539Z,4.00
2022-10-17T10:57:32.126Z,3.50
2022-10-17T11:00:07.528Z,4.87
2022-10-17T11:02:41.899Z,4.10
2022-10-17T11:05:15.346Z,3.63
2022-10-17T11:07:53.322Z,4.03
2022-10-17T11:10:26.658Z,4.20
2022-10-17T11:13:00.785Z,3.83
2022-10-17T11:15:36.436Z,3.77
2022-10-17T11:18:08.130Z,3.50
2022-10-17T11:20:44.783Z,4.40
2022-10-17T11:23:21.539Z,3.77
2022-10-17T11:25:53.126Z,4.27
2022-10-17T11:28:24.303Z,4.40
2022-10-17T11:30:57.281Z,3.80
2022-10-17T11:33:30.458Z,3.30
2022-10-17T11:36:04.757Z,3.85
2022-10-17T11:38:43.095Z,3.67
2022-10-17T11:41:17.314Z,4.93
2022-10-17T11:43:52.962Z,3.53
2022-10-17T11:46:23.824Z,11.33
2022-10-17T11:49:07.082Z,3.43
2022-10-17T11:52:00.289Z,3.87
2022-10-17T11:54:35.595Z,3.60
2022-10-17T11:57:20.504Z,4.90
2022-10-17T12:00:04.193Z,3.30
2022-10-17T12:02:43.412Z,3.60
2022-10-17T12:05:22.874Z,4.10
2022-10-17T12:07:57.588Z,4.90
2022-10-17T12:10:35.243Z,3.47
2022-10-17T12:13:35.804Z,3.70
2022-10-17T12:16:45.325Z,3.23
2022-10-17T12:19:24.567Z,3.57
2022-10-17T12:22:01.245Z,5.97
2022-10-17T12:24:38.363Z,4.00
2022-10-17T12:27:36.101Z,3.87
2022-10-17T12:30:07.932Z,3.77
2022-10-17T12:33:00.347Z,3.77
2022-10-17T12:35:27.234Z,3.77
2022-10-17T12:38:19.412Z,4.73
2022-10-17T12:41:07.780Z,4.50
2022-10-17T12:46:46.148Z,3.80
2022-10-17T12:49:44.190Z,4.00
2022-10-17T12:52:24.707Z,3.60
2022-10-17T12:55:12.120Z,3.30
2022-10-17T12:57:49.262Z,4.20
2022-10-17T13:00:22.221Z,4.70
2022-10-17T13:02:53.105Z,4.40
2022-10-17T13:05:28.722Z,4.90
2022-10-17T13:07:58.457Z,3.90
2022-10-17T13:10:29.411Z,5.40
2022-10-17T13:13:05.856Z,6.63
2022-10-17T13:15:35.954Z,5.03
2022-10-17T13:18:03.890Z,4.80
2022-10-17T13:20:33.529Z,4.47
2022-10-17T13:23:01.661Z,4.33
2022-10-17T13:25:29.949Z,3.10
2022-10-17T13:28:14.592Z,4.30
2022-10-17T13:30:49.861Z,6.77
2022-10-17T13:33:30.076Z,6.67
2022-10-17T13:36:01.194Z,6.00
2022-10-17T13:38:34.846Z,3.53
2022-10-17T13:41:33.778Z,4.00
2022-10-17T13:43:54.242Z,4.33
2022-10-17T13:46:39.568Z,4.57
2022-10-17T13:49:16.768Z,4.83
2022-10-17T13:51:49.361Z,5.13
2022-10-17T13:54:32.676Z,4.10
2022-10-17T13:57:02.019Z,4.07
2022-10-17T13:59:34.937Z,4.10
2022-10-17T14:02:03.489Z,3.80
2022-10-17T14:04:44.673Z,4.97
2022-10-17T14:07:29.512Z,3.90
2022-10-17T14:10:06.102Z,3.67
2022-10-17T14:12:35.217Z,4.57
2022-10-17T14:15:10.560Z,4.27
2022-10-17T14:17:41.628Z,4.17
2022-10-17T14:23:32.310Z,3.47
2022-10-17T14:26:13.677Z,5.33
2022-10-17T14:28:43.730Z,3.73
2022-10-17T14:31:22.682Z,5.30
2022-10-17T14:33:52.635Z,4.90
2022-10-17T14:36:21.576Z,7.43
2022-10-17T14:38:53.218Z,6.67
2022-10-17T14:44:22.488Z,4.23
2022-10-17T14:46:55.154Z,3.70
2022-10-17T14:49:28.769Z,3.20
2022-10-17T14:52:27.763Z,4.10
2022-10-17T14:54:58.450Z,4.10
2022-10-17T14:57:30.207Z,4.07
2022-10-17T14:59:58.348Z,4.97
2022-10-17T15:02:27.638Z,13.43
2022-10-17T15:04:56.172Z,6.57
2022-10-17T15:07:24.420Z,5.03
2022-10-17T15:09:53.696Z,5.13
2022-10-17T15:12:25.813Z,4.73
2022-10-17T15:14:54.667Z,4.40
2022-10-17T15:17:25.277Z,5.53
2022-10-17T15:19:53.728Z,6.40
2022-10-17T15:22:31.829Z,5.00
2022-10-17T15:24:59.915Z,4.83
2022-10-17T15:27:31.304Z,4.83
2022-10-17T15:29:59.475Z,5.00
2022-10-17T15:32:27.373Z,5.17
2022-10-17T15:34:55.287Z,5.10
2022-10-17T15:37:25.559Z,5.80
2022-10-17T15:39:55.099Z,8.50
2022-10-17T15:42:25.690Z,5.97
2022-10-17T15:44:55.831Z,6.90
2022-10-17T15:47:28.034Z,8.10
2022-10-17T15:49:56.700Z,6.70
2022-10-17T15:52:25.056Z,6.57
2022-10-17T15:54:53.088Z,6.07
2022-10-17T15:57:23.876Z,7.83
2022-10-17T15:59:52.839Z,11.50
2022-10-17T16:02:24.679Z,22.53
2022-10-17T16:04:53.157Z,14.53
2022-10-17T16:07:22.147Z,11.07
2022-10-17T16:09:50.080Z,10.43
2022-10-17T16:12:19.787Z,10.33
2022-10-17T16:14:53.236Z,10.40
2022-10-17T16:17:25.113Z,13.03
2022-10-17T16:19:53.445Z,10.50
2022-10-17T16:22:27.726Z,11.97
2022-10-17T16:24:59.294Z,10.83
2022-10-17T16:27:27.364Z,12.20
2022-10-17T16:29:55.270Z,9.13
2022-10-17T16:32:24.986Z,8.97
2022-10-17T16:34:53.974Z,7.40
2022-10-17T16:37:25.384Z,9.13
2022-10-17T16:39:53.736Z,10.20
2022-10-17T16:42:22.177Z,9.40
2022-10-17T16:44:51.384Z,8.80
2022-10-17T16:47:20.166Z,8.30
2022-10-17T16:49:49.848Z,7.90
2022-10-17T16:52:17.623Z,8.67
2022-10-17T16:54:49.650Z,9.50
2022-10-17T16:57:17.712Z,8.40
2022-10-17T16:59:45.596Z,7.37
2022-10-17T17:02:16.368Z,8.37
2022-10-17T17:04:47.134Z,8.30
2022-10-17T17:07:18.081Z,9.77
2022-10-17T17:09:45.869Z,10.17
2022-10-17T17:12:14.189Z,10.33
2022-10-17T17:14:42.168Z,8.03
2022-10-17T17:17:19.375Z,7.90
2022-10-17T17:19:58.264Z,17.33
2022-10-17T17:22:27.736Z,14.87
2022-10-17T17:24:55.809Z,16.53
2022-10-17T17:27:25.249Z,13.90
2022-10-17T17:29:53.223Z,16.17
2022-10-17T17:32:21.286Z,21.00
2022-10-17T17:34:49.399Z,18.00
2022-10-17T17:37:17.471Z,14.97
2022-10-17T17:39:47.089Z,11.67
2022-10-17T17:42:15.084Z,13.80
2022-10-17T17:44:42.828Z,12.13
2022-10-17T17:47:10.745Z,10.00
2022-10-17T17:49:38.912Z,9.27
2022-10-17T17:52:06.898Z,11.43
2022-10-17T17:54:38.508Z,12.73
2022-10-17T17:57:11.622Z,12.53
2022-10-17T17:59:41.494Z,11.17
2022-10-17T18:02:11.010Z,9.97
2022-10-17T18:04:38.928Z,9.77
2022-10-17T18:07:06.947Z,9.23
2022-10-17T18:09:34.761Z,8.20
2022-10-17T18:12:02.657Z,8.93
2022-10-17T18:14:32.075Z,9.67
2022-10-17T18:17:00.126Z,11.57
2022-10-17T18:19:28.389Z,15.67
2022-10-17T18:21:56.872Z,15.37
2022-10-17T18:24:25.381Z,14.80
2022-10-17T18:26:56.375Z,12.50
2022-10-17T18:29:24.295Z,13.87
2022-10-17T18:32:15.424Z,14.13
2022-10-17T18:34:44.949Z,11.57
2022-10-17T18:37:13.419Z,9.50
2022-10-17T18:39:41.632Z,10.20
2022-10-17T18:42:10.495Z,11.43
2022-10-17T18:44:38.422Z,9.40
2022-10-17T18:47:07.804Z,8.13
2022-10-17T18:49:35.783Z,10.00
2022-10-17T18:52:03.855Z,9.20
2022-10-17T18:54:33.648Z,10.60
2022-10-17T18:57:01.786Z,11.20
2022-10-17T18:59:29.775Z,9.60
2022-10-17T19:02:00.041Z,9.83
2022-10-17T19:04:29.445Z,9.50
2022-10-17T19:06:59.629Z,10.30
2022-10-17T19:09:27.561Z,32.83
2022-10-17T19:11:56.530Z,19.87
2022-10-17T19:14:26.228Z,17.77
2022-10-17T19:16:56.011Z,12.33
2022-10-17T19:19:25.392Z,9.93
2022-10-17T19:21:55.041Z,9.60
2022-10-17T19:24:25.527Z,13.73
2022-10-17T19:26:56.126Z,6.90
2022-10-17T19:29:28.455Z,8.73
2022-10-17T19:31:58.221Z,8.73
2022-10-17T19:34:26.157Z,7.53
2022-10-17T19:36:56.822Z,9.83
2022-10-17T19:39:26.495Z,7.93
2022-10-17T19:41:54.359Z,10.13
2022-10-17T19:44:22.404Z,8.53
2022-10-17T19:46:50.226Z,7.93
2022-10-17T19:49:19.497Z,7.70
2022-10-17T19:51:47.694Z,9.10
2022-10-17T19:54:18.720Z,7.73
2022-10-17T19:56:48.472Z,7.47
2022-10-17T19:59:17.664Z,10.70
2022-10-17T20:01:46.704Z,8.87
2022-10-17T20:04:14.854Z,9.77
2022-10-17T20:06:43.178Z,8.33
2022-10-17T20:09:16.523Z,8.60
2022-10-17T20:11:50.222Z,11.33
2022-10-17T20:14:18.201Z,9.67
2022-10-17T20:16:50.205Z,9.17
2022-10-17T20:19:18.582Z,11.97
2022-10-17T20:21:46.889Z,10.03
2022-10-17T20:24:17.884Z,7.63
2022-10-17T20:26:47.685Z,7.93
2022-10-17T20:29:17.933Z,8.70
2022-10-17T20:31:47.841Z,8.23
2022-10-17T20:34:18.029Z,8.43
2022-10-17T20:36:46.356Z,6.93
2022-10-17T20:39:16.284Z,6.93
2022-10-17T20:41:49.472Z,8.50
2022-10-17T20:44:17.645Z,8.23
2022-10-17T20:47:00.564Z,8.17
2022-10-17T20:49:29.503Z,8.60
2022-10-17T20:51:57.716Z,8.90
2022-10-17T20:54:27.893Z,9.20
2022-10-17T20:57:01.056Z,9.83
2022-10-17T20:59:38.178Z,8.13
2022-10-17T21:02:11.691Z,9.27
2022-10-17T21:04:46.305Z,8.93
2022-10-17T21:07:16.037Z,8.03
2022-10-17T21:09:45.511Z,8.77
2022-10-17T21:12:21.801Z,8.90
2022-10-17T21:14:59.625Z,9.87
2022-10-17T21:17:28.620Z,9.97
2022-10-17T21:19:57.010Z,10.03
2022-10-17T21:22:25.114Z,10.73
2022-10-17T21:24:53.015Z,9.97
2022-10-17T21:27:22.419Z,9.17
2022-10-17T21:29:50.641Z,8.90
2022-10-17T21:32:32.047Z,8.73
2022-10-17T21:35:09.112Z,9.53
2022-10-17T21:37:44.639Z,8.10
2022-10-17T21:40:13.872Z,9.20
2022-10-17T21:42:43.039Z,9.37
2022-10-17T21:45:15.945Z,9.63
2022-10-17T21:48:11.567Z,9.60
2022-10-17T21:50:42.293Z,9.87
2022-10-17T21:53:10.175Z,8.87
2022-10-17T21:55:38.402Z,9.20
2022-10-17T21:58:08.011Z,9.83
2022-10-17T22:00:36.308Z,9.67
2022-10-17T22:03:04.347Z,8.77
2022-10-17T22:05:32.510Z,10.73
2022-10-17T22:08:00.785Z,9.07
2022-10-17T22:10:31.541Z,10.67
2022-10-17T22:12:59.314Z,9.50
2022-10-17T22:15:28.492Z,9.50
2022-10-17T22:17:56.237Z,10.30
2022-10-17T22:20:24.436Z,10.73
2022-10-17T22:22:52.094Z,11.30
2022-10-17T22:25:19.902Z,9.17
2022-10-17T22:27:48.168Z,9.47
2022-10-17T22:30:16.212Z,11.20
2022-10-17T22:32:45.507Z,10.73
2022-10-17T22:35:13.590Z,10.73
2022-10-17T22:37:42.099Z,10.93
2022-10-17T22:40:10.487Z,10.50
2022-10-17T22:42:41.165Z,10.63
2022-10-17T22:45:10.843Z,11.90
2022-10-17T22:47:38.662Z,12.23
2022-10-17T22:50:08.383Z,11.00
2022-10-17T22:52:36.287Z,10.80
2022-10-17T22:55:04.518Z,11.90
2022-10-17T22:57:32.379Z,11.53
2022-10-17T23:00:00.419Z,11.27
2022-10-17T23:02:29.012Z,11.90
2022-10-17T23:04:57.146Z,11.10
2022-10-17T23:07:26.867Z,9.97
2022-10-17T23:09:56.244Z,9.60
2022-10-17T23:12:24.186Z,10.90
2022-10-17T23:14:51.992Z,11.23
2022-10-17T23:17:19.762Z,10.57
2022-10-17T23:19:47.608Z,10.97
2022-10-17T23:22:15.380Z,10.10
2022-10-17T23:24:44.961Z,10.80
2022-10-17T23:27:12.751Z,11.30
2022-10-17T23:29:40.476Z,10.13
2022-10-17T23:32:08.143Z,11.73
2022-10-17T23:34:36.170Z,11.60
2022-10-17T23:37:03.952Z,11.80
2022-10-17T23:39:31.865Z,12.10
2022-10-17T23:42:01.130Z,11.60
2022-10-17T23:44:29.023Z,11.57
2022-10-17T23:46:56.659Z,10.97
2022-10-17T23:49:24.553Z,11.20
2022-10-17T23:51:52.330Z,10.40
2022-10-17T23:54:20.356Z,12.60
2022-10-17T23:56:49.280Z,11.33
2022-10-17T23:59:20.510Z,10.60
